Spirit Of New Jersey — WCX9137 — position and weather

sailwx.info

Track history (hours):
 
Tides and Currents Weather Stations Pressure Air Temp Water Temp Dewpoint Dewpoint Depression Visibility Wind Speed Wind Dir Waves Ship Positions

Spirit Of New Jersey

Owner: SPIRIT CRUISES, NEW YORK, NY. More information available from US FCC via Universal Licensing System and Coast Guard Vessel Documentation Center.

Last reported at 2017-Dec-17 19:49 UTC. Time now 2017-Dec-17 23:26 UTC.
Position N 40°45' W 074°01'.

MMSI: 364919326.

Date/timePositionNaut miles runAvg speedWind from/ knotsBaromVisibWave heightAir tempDewpointWater temp
2017-Dec-17 19:49N 40°45' W 074°01'1 2.3
2017-Dec-17 19:30N 40°45' W 074°01'0 0.1
2017-Dec-17 19:00N 40°46' W 074°01'2 4.0
2017-Dec-17 18:30N 40°44' W 074°01'2 4.6
2017-Dec-17 18:00N 40°41' W 074°02'2 3.8
2017-Dec-17 17:30N 40°43' W 074°01'3 5.1
2017-Dec-17 17:00N 40°46' W 074°01'0 0.0
2017-Dec-17 16:29N 40°46' W 074°01'0 0.0
2017-Dec-17 16:00N 40°46' W 074°01'1 1.6
2017-Dec-17 15:30N 40°45' W 074°01'0 0.0
2017-Dec-17 15:00N 40°45' W 074°01'0 0.0
2017-Dec-17 14:30N 40°45' W 074°01'0 0.0
2017-Dec-17 04:05N 40°45' W 074°01'0 0.1
2017-Dec-17 04:00N 40°45' W 074°01'1 1.5
2017-Dec-17 03:30N 40°46' W 074°01'0 0.3
2017-Dec-17 03:00N 40°46' W 074°01'2 5.0
2017-Dec-17 02:30N 40°43' W 074°02'2 4.3
2017-Dec-17 02:00N 40°41' W 074°03'3 5.6
2017-Dec-17 01:30N 40°42' W 073°59'2 4.0
2017-Dec-17 01:00N 40°44' W 074°01'2 3.5
2017-Dec-17 00:30N 40°46' W 074°01'0 0.0
2017-Dec-17 00:00N 40°46' W 074°01'0 0.0
2017-Dec-16 23:30N 40°46' W 074°01'0 0.0
2017-Dec-16 23:00N 40°46' W 074°01'0 0.0
2017-Dec-16 22:30N 40°46' W 074°01'1 1.5
2017-Dec-16 22:00N 40°45' W 074°01'0 0.0
2017-Dec-16 03:55N 40°45' W 074°01'1 1.8
2017-Dec-16 03:30N 40°46' W 074°01'0 0.0
2017-Dec-16 03:00N 40°46' W 074°01'2 3.5
2017-Dec-16 02:30N 40°44' W 074°01'3 5.4
2017-Dec-16 02:00N 40°41' W 074°02'2 3.5
2017-Dec-16 01:30N 40°42' W 074°00'3 5.9
2017-Dec-16 01:00N 40°45' W 074°01'1 1.5
2017-Dec-16 00:30N 40°46' W 074°01'0 0.0
2017-Dec-16 00:00N 40°46' W 074°01'0 0.0
2017-Dec-15 23:30N 40°46' W 074°01'0 0.5
2017-Dec-15 23:00N 40°45' W 074°01'1 1.0
2017-Dec-15 22:30N 40°45' W 074°01'0 0.0
2017-Dec-15 22:00N 40°45' W 074°01'0 0.0
2017-Dec-15 21:30N 40°45' W 074°01'0 0.0
2017-Dec-15 21:00N 40°45' W 074°01'0 0.0
2017-Dec-15 20:30N 40°45' W 074°01'0 0.0
2017-Dec-15 20:00N 40°45' W 074°01'1 1.2
2017-Dec-15 19:30N 40°45' W 074°01'0 0.5
2017-Dec-15 19:00N 40°46' W 074°01'2 4.4
2017-Dec-15 18:30N 40°43' W 074°02'2 4.7
2017-Dec-15 18:00N 40°41' W 074°03'2 3.4
2017-Dec-15 17:30N 40°43' W 074°01'3 5.9
2017-Dec-15 17:00N 40°46' W 074°01'0 0.0
2017-Dec-15 16:30N 40°46' W 074°01'0 0.0
2017-Dec-15 16:00N 40°46' W 074°01'1 0.1
2017-Dec-15 02:30N 40°45' W 074°01'3 1.9
2017-Dec-15 01:00N 40°42' W 074°00'3 5.1
2017-Dec-15 00:30N 40°44' W 074°01'  
2017-Dec-11 01:31N 40°45' W 074°01'0 0.0
2017-Dec-11 01:30N 40°45' W 074°01'1 1.6
2017-Dec-11 01:00N 40°46' W 074°01'0 0.0
2017-Dec-11 00:30N 40°46' W 074°01'2 3.9
2017-Dec-11 00:00N 40°44' W 074°01'2 4.9
2017-Dec-10 23:30N 40°41' W 074°02'3 5.6
2017-Dec-10 23:00N 40°42' W 073°59'2 3.6
2017-Dec-10 22:30N 40°43' W 074°01'3 5.8
2017-Dec-10 22:00N 40°46' W 074°01'0 0.0
2017-Dec-10 21:30N 40°46' W 074°01'1 1.5
2017-Dec-10 20:59N 40°45' W 074°01'0 0.0
2017-Dec-10 02:55N 40°45' W 074°01'2 4.2
2017-Dec-10 02:30N 40°43' W 074°01'2 4.5
2017-Dec-10 02:00N 40°41' W 074°03'3 5.9
2017-Dec-10 01:30N 40°42' W 073°59'2 3.8
2017-Dec-10 01:00N 40°42' W 074°01'4 7.5
2017-Dec-10 00:30N 40°46' W 074°00'1 0.2
2017-Dec-09 19:51N 40°45' W 074°01'1 1.9
2017-Dec-09 19:30N 40°44' W 074°01'3 6.2
2017-Dec-09 19:00N 40°41' W 074°02'2 4.7
2017-Dec-09 18:30N 40°42' W 073°60'2 3.8
2017-Dec-09 18:00N 40°44' W 074°01'1 1.9
2017-Dec-09 17:30N 40°45' W 074°01'0 0.0
2017-Dec-09 17:00N 40°45' W 074°01'0 0.0
2017-Dec-09 16:30N 40°45' W 074°01'0 0.0
2017-Dec-09 16:00N 40°45' W 074°01'0 0.0
2017-Dec-08 03:34N 40°45' W 074°01'0 0.3
2017-Dec-08 03:30N 40°45' W 074°01'1 1.5
2017-Dec-08 03:00N 40°46' W 074°01'0 0.0
2017-Dec-08 02:30N 40°46' W 074°01'2 3.8
2017-Dec-08 02:00N 40°44' W 074°01'3 5.1
2017-Dec-08 01:30N 40°41' W 074°02'3 6.0
2017-Dec-08 01:00N 40°43' W 073°59'2 4.6
2017-Dec-08 00:30N 40°44' W 074°01'1 3.0
2017-Dec-08 00:00N 40°46' W 074°01'0 0.0
2017-Dec-07 23:30N 40°46' W 074°01'0 0.0
2017-Dec-07 23:00N 40°46' W 074°01'1 1.5
2017-Dec-07 22:30N 40°45' W 074°01'0 0.0
2017-Dec-07 22:00N 40°45' W 074°01'0 0.0
2017-Dec-07 21:30N 40°45' W 074°01'  
Track history (hours):
 
Tides and Currents Weather Stations Pressure Air Temp Water Temp Dewpoint Dewpoint Depression Visibility Wind Speed Wind Dir Waves Ship Positions

Spirit Of New Jersey

Owner: SPIRIT CRUISES, NEW YORK, NY. More information available from US FCC via Universal Licensing System and Coast Guard Vessel Documentation Center.

Last reported at 2017-Dec-17 19:49 UTC. Time now 2017-Dec-17 23:26 UTC.
Position N 40°45' W 074°01'.

MMSI: 364919326.

Date/timePositionNaut miles runAvg speedWind from/ knotsBaromVisibWave heightAir tempDewpointWater temp
2017-Dec-17 19:49N 40°45' W 074°01'1 2.3
2017-Dec-17 19:30N 40°45' W 074°01'0 0.1
2017-Dec-17 19:00N 40°46' W 074°01'2 4.0
2017-Dec-17 18:30N 40°44' W 074°01'2 4.6
2017-Dec-17 18:00N 40°41' W 074°02'2 3.8
2017-Dec-17 17:30N 40°43' W 074°01'3 5.1
2017-Dec-17 17:00N 40°46' W 074°01'0 0.0
2017-Dec-17 16:29N 40°46' W 074°01'0 0.0
2017-Dec-17 16:00N 40°46' W 074°01'1 1.6
2017-Dec-17 15:30N 40°45' W 074°01'0 0.0
2017-Dec-17 15:00N 40°45' W 074°01'0 0.0
2017-Dec-17 14:30N 40°45' W 074°01'0 0.0
2017-Dec-17 04:05N 40°45' W 074°01'0 0.1
2017-Dec-17 04:00N 40°45' W 074°01'1 1.5
2017-Dec-17 03:30N 40°46' W 074°01'0 0.3
2017-Dec-17 03:00N 40°46' W 074°01'2 5.0
2017-Dec-17 02:30N 40°43' W 074°02'2 4.3
2017-Dec-17 02:00N 40°41' W 074°03'3 5.6
2017-Dec-17 01:30N 40°42' W 073°59'2 4.0
2017-Dec-17 01:00N 40°44' W 074°01'2 3.5
2017-Dec-17 00:30N 40°46' W 074°01'0 0.0
2017-Dec-17 00:00N 40°46' W 074°01'0 0.0
2017-Dec-16 23:30N 40°46' W 074°01'0 0.0
2017-Dec-16 23:00N 40°46' W 074°01'0 0.0
2017-Dec-16 22:30N 40°46' W 074°01'1 1.5
2017-Dec-16 22:00N 40°45' W 074°01'0 0.0
2017-Dec-16 03:55N 40°45' W 074°01'1 1.8
2017-Dec-16 03:30N 40°46' W 074°01'0 0.0
2017-Dec-16 03:00N 40°46' W 074°01'2 3.5
2017-Dec-16 02:30N 40°44' W 074°01'3 5.4
2017-Dec-16 02:00N 40°41' W 074°02'2 3.5
2017-Dec-16 01:30N 40°42' W 074°00'3 5.9
2017-Dec-16 01:00N 40°45' W 074°01'1 1.5
2017-Dec-16 00:30N 40°46' W 074°01'0 0.0
2017-Dec-16 00:00N 40°46' W 074°01'0 0.0
2017-Dec-15 23:30N 40°46' W 074°01'0 0.5
2017-Dec-15 23:00N 40°45' W 074°01'1 1.0
2017-Dec-15 22:30N 40°45' W 074°01'0 0.0
2017-Dec-15 22:00N 40°45' W 074°01'0 0.0
2017-Dec-15 21:30N 40°45' W 074°01'0 0.0
2017-Dec-15 21:00N 40°45' W 074°01'0 0.0
2017-Dec-15 20:30N 40°45' W 074°01'0 0.0
2017-Dec-15 20:00N 40°45' W 074°01'1 1.2
2017-Dec-15 19:30N 40°45' W 074°01'0 0.5
2017-Dec-15 19:00N 40°46' W 074°01'2 4.4
2017-Dec-15 18:30N 40°43' W 074°02'2 4.7
2017-Dec-15 18:00N 40°41' W 074°03'2 3.4
2017-Dec-15 17:30N 40°43' W 074°01'3 5.9
2017-Dec-15 17:00N 40°46' W 074°01'0 0.0
2017-Dec-15 16:30N 40°46' W 074°01'0 0.0
2017-Dec-15 16:00N 40°46' W 074°01'1 0.1
2017-Dec-15 02:30N 40°45' W 074°01'3 1.9
2017-Dec-15 01:00N 40°42' W 074°00'3 5.1
2017-Dec-15 00:30N 40°44' W 074°01'  
2017-Dec-11 01:31N 40°45' W 074°01'0 0.0
2017-Dec-11 01:30N 40°45' W 074°01'1 1.6
2017-Dec-11 01:00N 40°46' W 074°01'0 0.0
2017-Dec-11 00:30N 40°46' W 074°01'2 3.9
2017-Dec-11 00:00N 40°44' W 074°01'2 4.9
2017-Dec-10 23:30N 40°41' W 074°02'3 5.6
2017-Dec-10 23:00N 40°42' W 073°59'2 3.6
2017-Dec-10 22:30N 40°43' W 074°01'3 5.8
2017-Dec-10 22:00N 40°46' W 074°01'0 0.0
2017-Dec-10 21:30N 40°46' W 074°01'1 1.5
2017-Dec-10 20:59N 40°45' W 074°01'0 0.0
2017-Dec-10 02:55N 40°45' W 074°01'2 4.2
2017-Dec-10 02:30N 40°43' W 074°01'2 4.5
2017-Dec-10 02:00N 40°41' W 074°03'3 5.9
2017-Dec-10 01:30N 40°42' W 073°59'2 3.8
2017-Dec-10 01:00N 40°42' W 074°01'4 7.5
2017-Dec-10 00:30N 40°46' W 074°00'1 0.2
2017-Dec-09 19:51N 40°45' W 074°01'1 1.9
2017-Dec-09 19:30N 40°44' W 074°01'3 6.2
2017-Dec-09 19:00N 40°41' W 074°02'2 4.7
2017-Dec-09 18:30N 40°42' W 073°60'2 3.8
2017-Dec-09 18:00N 40°44' W 074°01'1 1.9
2017-Dec-09 17:30N 40°45' W 074°01'0 0.0
2017-Dec-09 17:00N 40°45' W 074°01'0 0.0
2017-Dec-09 16:30N 40°45' W 074°01'0 0.0
2017-Dec-09 16:00N 40°45' W 074°01'0 0.0
2017-Dec-08 03:34N 40°45' W 074°01'0 0.3
2017-Dec-08 03:30N 40°45' W 074°01'1 1.5
2017-Dec-08 03:00N 40°46' W 074°01'0 0.0
2017-Dec-08 02:30N 40°46' W 074°01'2 3.8
2017-Dec-08 02:00N 40°44' W 074°01'3 5.1
2017-Dec-08 01:30N 40°41' W 074°02'3 6.0
2017-Dec-08 01:00N 40°43' W 073°59'2 4.6
2017-Dec-08 00:30N 40°44' W 074°01'1 3.0
2017-Dec-08 00:00N 40°46' W 074°01'0 0.0
2017-Dec-07 23:30N 40°46' W 074°01'0 0.0
2017-Dec-07 23:00N 40°46' W 074°01'1 1.5
2017-Dec-07 22:30N 40°45' W 074°01'0 0.0
2017-Dec-07 22:00N 40°45' W 074°01'0 0.0
2017-Dec-07 21:30N 40°45' W 074°01'  

Dump ship's entire track history